Time;durP1;ratioP1;P1;durP2;ratioP2;P2;SDS_P1;SDS_P2;PMS_P1;PMS_P2;Temp;Humidity;BMP_temperature;BMP_pressure;BME280_temperature;BME280_humidity;BME280_pressure;Samples;Min_cycle;Max_cycle;Signal;HPM_P1;HPM_P2
2023/09/19 00:01:19;;;;;;;4.63;4.07;;;19.30;74.10;;;;;;6122139;23;20220;-81
2023/09/19 00:03:45;;;;;;;5.82;4.00;;;19.40;74.20;;;;;;6120560;23;20244;-83
2023/09/19 00:06:15;;;;;;;4.57;4.18;;;19.30;74.10;;;;;;6122394;23;20498;-85
2023/09/19 00:08:44;;;;;;;5.53;4.20;;;19.30;74.10;;;;;;6096221;23;20160;-81
2023/09/19 00:11:10;;;;;;;5.45;4.00;;;19.40;74.20;;;;;;6096599;23;20145;-82
2023/09/19 00:13:36;;;;;;;4.75;4.35;;;19.40;74.20;;;;;;6121978;23;20143;-83
2023/09/19 00:16:08;;;;;;;4.57;3.80;;;19.30;74.10;;;;;;6120782;23;20132;-85
2023/09/19 00:18:35;;;;;;;5.80;4.15;;;19.40;74.20;;;;;;6096349;23;20445;-81
2023/09/19 00:21:04;;;;;;;4.40;4.00;;;19.40;74.20;;;;;;6120618;23;20132;-81
2023/09/19 00:23:31;;;;;;;5.03;4.00;;;19.30;74.20;;;;;;6123839;22;20129;-82
2023/09/19 00:25:59;;;;;;;4.68;3.95;;;19.40;75.10;;;;;;6102142;23;20216;-84
2023/09/19 00:28:25;;;;;;;4.95;4.45;;;19.40;74.30;;;;;;6125387;23;20167;-83
2023/09/19 00:30:51;;;;;;;4.68;4.15;;;19.30;74.20;;;;;;6125829;23;20155;-84
2023/09/19 00:33:19;;;;;;;5.53;4.30;;;19.40;74.30;;;;;;6101534;23;20152;-79
2023/09/19 00:35:50;;;;;;;4.65;4.25;;;19.30;74.20;;;;;;6151273;22;20127;-82
2023/09/19 00:38:17;;;;;;;4.40;4.00;;;19.40;74.30;;;;;;6151412;23;20154;-82
2023/09/19 00:40:44;;;;;;;5.15;4.28;;;19.40;74.30;;;;;;6125929;23;20131;-84
2023/09/19 00:43:11;;;;;;;5.07;4.18;;;19.30;74.30;;;;;;6151633;22;20136;-80
2023/09/19 00:45:38;;;;;;;4.15;3.78;;;19.40;74.40;;;;;;6125720;23;20139;-81
2023/09/19 00:48:05;;;;;;;5.15;4.07;;;19.30;75.10;;;;;;6101257;23;20503;-81
2023/09/19 00:50:32;;;;;;;4.50;4.10;;;19.30;74.30;;;;;;6125818;23;20135;-83
2023/09/19 00:52:57;;;;;;;5.95;4.03;;;19.30;74.30;;;;;;6100867;23;20541;-82
2023/09/19 00:55:24;;;;;;;3.92;3.55;;;19.30;74.40;;;;;;6101181;23;20149;-80
2023/09/19 00:57:50;;;;;;;5.15;3.92;;;19.30;74.30;;;;;;6125770;23;20165;-81
2023/09/19 01:00:16;;;;;;;4.13;3.72;;;19.30;75.20;;;;;;6125447;23;20228;-81
2023/09/19 01:02:43;;;;;;;4.93;3.85;;;19.30;74.30;;;;;;6125414;23;20148;-83
2023/09/19 01:05:10;;;;;;;4.60;4.20;;;19.30;74.40;;;;;;6125317;23;20148;-79
2023/09/19 01:07:35;;;;;;;5.30;4.10;;;19.30;74.30;;;;;;6124191;23;20175;-80
2023/09/19 01:10:05;;;;;;;4.32;3.80;;;19.30;74.30;;;;;;6151776;22;20665;-83
2023/09/19 01:12:51;;;;;;;4.18;3.78;;;19.30;74.40;;;;;;6101886;23;20564;-78
2023/09/19 01:15:40;;;;;;;4.72;3.88;;;19.30;74.40;;;;;;6125495;23;20132;-85
2023/09/19 01:18:20;;;;;;;4.28;3.88;;;19.30;74.40;;;;;;6125193;23;20212;-83
2023/09/19 01:21:12;;;;;;;4.47;3.90;;;19.30;74.40;;;;;;6101114;23;20170;-83
2023/09/19 01:24:11;;;;;;;4.53;4.13;;;19.30;74.40;;;;;;6150833;22;20210;-83
2023/09/19 01:27:02;;;;;;;6.25;4.13;;;19.30;74.40;;;;;;6133010;23;20142;-81
2023/09/19 01:29:39;;;;;;;4.57;4.15;;;19.30;74.50;;;;;;6151182;23;20248;-82
2023/09/19 01:32:06;;;;;;;4.50;4.10;;;19.30;74.40;;;;;;6125793;23;20139;-82
2023/09/19 01:34:47;;;;;;;4.35;3.95;;;19.30;74.50;;;;;;6125265;23;20147;-85
2023/09/19 01:37:13;;;;;;;4.60;4.20;;;19.30;74.40;;;;;;6150971;22;20135;-80
2023/09/19 01:39:40;;;;;;;4.78;4.00;;;19.30;74.40;;;;;;6125440;23;20178;-81
2023/09/19 01:42:19;;;;;;;4.20;3.80;;;19.20;74.50;;;;;;6125407;23;20139;-81
2023/09/19 01:44:56;;;;;;;4.15;3.83;;;19.30;74.50;;;;;;6150917;22;20133;-81
2023/09/19 01:47:37;;;;;;;4.85;4.13;;;19.30;74.60;;;;;;6150846;23;20181;-83
2023/09/19 01:50:21;;;;;;;6.30;4.13;;;19.30;74.70;;;;;;6151095;23;20582;-82
2023/09/19 01:52:51;;;;;;;4.70;4.20;;;19.20;74.60;;;;;;6151440;23;20223;-79
2023/09/19 01:55:17;;;;;;;4.13;3.72;;;19.20;74.60;;;;;;6151469;23;20231;-80
2023/09/19 01:57:52;;;;;;;5.32;4.05;;;19.30;74.70;;;;;;6100804;23;20587;-85
2023/09/19 02:00:18;;;;;;;4.68;4.00;;;19.30;74.80;;;;;;6124517;23;20487;-83
2023/09/19 02:02:47;;;;;;;4.78;3.80;;;19.30;74.70;;;;;;6125198;23;20560;-84
2023/09/19 02:05:13;;;;;;;5.22;4.00;;;19.30;74.70;;;;;;6125180;23;20143;-81
2023/09/19 02:07:40;;;;;;;4.32;3.92;;;19.20;74.70;;;;;;6124068;23;20172;-81
2023/09/19 02:10:06;;;;;;;5.22;4.25;;;19.30;74.70;;;;;;6125594;23;20158;-80
2023/09/19 02:12:32;;;;;;;4.25;3.85;;;19.30;74.70;;;;;;6076587;23;20143;-85
2023/09/19 02:14:59;;;;;;;4.78;3.80;;;19.20;74.60;;;;;;6125007;23;20185;-80
2023/09/19 02:17:26;;;;;;;5.10;3.80;;;19.30;74.70;;;;;;6151390;23;20138;-84
2023/09/19 02:19:53;;;;;;;4.40;4.00;;;19.20;74.70;;;;;;6100778;23;20594;-80
2023/09/19 02:22:19;;;;;;;4.35;3.80;;;19.20;74.70;;;;;;6124903;23;20167;-81
2023/09/19 02:24:47;;;;;;;3.92;3.40;;;19.20;74.80;;;;;;6095305;23;20200;-82
2023/09/19 02:27:15;;;;;;;4.40;4.00;;;19.20;74.70;;;;;;6096021;23;20164;-84
2023/09/19 02:29:42;;;;;;;3.95;3.65;;;19.30;74.90;;;;;;6119971;23;20579;-79
2023/09/19 02:32:09;;;;;;;4.20;3.80;;;19.30;74.90;;;;;;6119976;23;20228;-81
2023/09/19 02:34:36;;;;;;;4.32;3.92;;;19.40;75.10;;;;;;6096122;23;20475;-83
2023/09/19 02:37:05;;;;;;;5.07;4.03;;;19.20;74.90;;;;;;6119930;23;20583;-81
2023/09/19 02:39:31;;;;;;;4.22;3.83;;;19.30;74.90;;;;;;6121164;23;20214;-82
2023/09/19 02:41:57;;;;;;;4.78;4.03;;;19.30;74.90;;;;;;6121107;23;20223;-84
2023/09/19 02:44:23;;;;;;;4.25;3.85;;;19.20;74.80;;;;;;6121374;23;20596;-80
2023/09/19 02:46:50;;;;;;;4.40;4.00;;;19.20;74.90;;;;;;6119695;23;20133;-83
2023/09/19 02:49:15;;;;;;;5.88;4.00;;;19.20;74.90;;;;;;6121631;23;20169;-79
2023/09/19 02:51:41;;;;;;;4.53;3.88;;;19.20;74.90;;;;;;6121713;23;20163;-80
2023/09/19 02:54:07;;;;;;;4.40;4.00;;;19.20;74.90;;;;;;6095423;23;20144;-82
2023/09/19 02:56:33;;;;;;;4.78;3.88;;;19.20;74.90;;;;;;6119794;23;20136;-80
2023/09/19 02:59:00;;;;;;;4.63;3.58;;;19.20;74.90;;;;;;6119644;23;20167;-84
2023/09/19 03:01:27;;;;;;;4.50;4.10;;;19.20;74.90;;;;;;6121488;23;20575;-83
2023/09/19 03:03:53;;;;;;;4.30;3.90;;;19.20;74.90;;;;;;6121259;23;20206;-80
2023/09/19 03:06:20;;;;;;;4.80;3.92;;;19.20;74.90;;;;;;6095317;23;20782;-80
2023/09/19 03:08:46;;;;;;;4.47;3.97;;;19.20;74.90;;;;;;6120074;23;20168;-79
2023/09/19 03:11:14;;;;;;;5.47;3.90;;;19.20;74.90;;;;;;6095449;23;20144;-80
2023/09/19 03:13:42;;;;;;;4.28;3.88;;;19.20;75.00;;;;;;6097081;23;20151;-82
2023/09/19 03:16:08;;;;;;;4.25;3.85;;;19.20;75.00;;;;;;6120914;23;20133;-82
2023/09/19 03:18:34;;;;;;;4.70;4.10;;;19.30;75.00;;;;;;6122342;23;20147;-84
2023/09/19 03:21:01;;;;;;;5.20;4.40;;;19.20;75.00;;;;;;6122152;23;20148;-84
2023/09/19 03:23:28;;;;;;;5.07;3.95;;;19.20;75.00;;;;;;6123078;22;20194;-82
2023/09/19 03:25:55;;;;;;;5.05;4.20;;;19.20;75.10;;;;;;6101799;23;20140;-85
2023/09/19 03:28:22;;;;;;;4.32;3.92;;;19.20;75.20;;;;;;6101405;23;20527;-81
2023/09/19 03:31:03;;;;;;;4.20;3.80;;;19.20;75.20;;;;;;6125896;23;20143;-83
2023/09/19 03:33:31;;;;;;;4.40;4.00;;;19.20;75.20;;;;;;6151455;23;20194;-84
2023/09/19 03:35:58;;;;;;;4.35;3.95;;;19.20;75.30;;;;;;6125645;23;20211;-83
2023/09/19 03:38:25;;;;;;;4.85;4.32;;;19.20;75.10;;;;;;6126192;23;20136;-83
2023/09/19 03:40:50;;;;;;;5.95;4.20;;;19.20;75.20;;;;;;6151961;23;20581;-83
2023/09/19 03:43:17;;;;;;;4.80;4.30;;;19.30;75.20;;;;;;6125764;23;20151;-83
2023/09/19 03:45:43;;;;;;;4.40;4.00;;;19.20;75.30;;;;;;6126297;23;20230;-81
2023/09/19 03:48:10;;;;;;;4.93;4.43;;;19.30;75.20;;;;;;6125482;23;20167;-83
2023/09/19 03:50:36;;;;;;;5.10;4.35;;;19.20;75.20;;;;;;6125826;23;20144;-82
2023/09/19 03:53:02;;;;;;;5.60;4.40;;;19.30;75.10;;;;;;6125834;23;20598;-83
2023/09/19 03:55:30;;;;;;;4.60;4.20;;;19.30;75.30;;;;;;6125607;23;20247;-84
2023/09/19 03:57:56;;;;;;;5.85;4.50;;;19.30;75.20;;;;;;6125915;23;20552;-82
2023/09/19 04:00:24;;;;;;;4.75;4.25;;;19.30;75.30;;;;;;6125459;23;20143;-83
2023/09/19 04:02:51;;;;;;;4.68;4.25;;;19.30;75.10;;;;;;6151562;22;20559;-82
2023/09/19 04:05:17;;;;;;;4.45;4.05;;;19.30;75.60;;;;;;6125478;23;20148;-81
2023/09/19 04:07:44;;;;;;;4.40;4.00;;;19.30;75.00;;;;;;6125085;23;20176;-81
2023/09/19 04:10:11;;;;;;;4.70;4.30;;;19.30;75.00;;;;;;6075697;23;20156;-83
2023/09/19 04:12:38;;;;;;;4.70;4.30;;;19.30;75.00;;;;;;6101857;23;20140;-81
2023/09/19 04:15:07;;;;;;;4.88;4.38;;;19.30;74.90;;;;;;6202741;23;20159;-84
2023/09/19 04:17:33;;;;;;;5.78;4.03;;;19.30;74.90;;;;;;6177542;23;20163;-83
2023/09/19 04:20:00;;;;;;;5.00;4.50;;;19.30;74.90;;;;;;6101208;23;20139;-80
2023/09/19 04:22:26;;;;;;;4.78;4.28;;;19.30;74.80;;;;;;6125127;23;20228;-82
2023/09/19 04:24:51;;;;;;;4.82;4.20;;;19.30;74.80;;;;;;6151284;22;20194;-83
2023/09/19 04:27:18;;;;;;;5.53;4.32;;;19.30;74.80;;;;;;6151419;22;20136;-79
2023/09/19 04:29:44;;;;;;;4.85;4.35;;;19.30;74.90;;;;;;6126008;23;20131;-80
2023/09/19 04:32:10;;;;;;;4.70;4.13;;;19.30;74.80;;;;;;6100987;23;20631;-83
2023/09/19 04:34:38;;;;;;;5.07;4.10;;;19.40;75.00;;;;;;6125449;23;20143;-80
2023/09/19 04:37:04;;;;;;;5.25;4.30;;;19.30;74.70;;;;;;6125399;23;20155;-83
2023/09/19 04:39:29;;;;;;;5.32;4.00;;;19.40;74.80;;;;;;6151421;22;20140;-82
2023/09/19 04:41:56;;;;;;;4.53;4.13;;;19.40;74.50;;;;;;6151325;22;20468;-82
2023/09/19 04:44:22;;;;;;;5.20;4.38;;;19.40;74.50;;;;;;6125850;23;20836;-80
2023/09/19 04:46:48;;;;;;;4.72;4.28;;;19.40;74.50;;;;;;6125590;23;20170;-84
2023/09/19 04:49:14;;;;;;;4.90;4.40;;;19.40;74.30;;;;;;6151332;22;20193;-85
2023/09/19 04:51:40;;;;;;;5.32;4.50;;;19.40;74.50;;;;;;6151587;22;20511;-81
2023/09/19 04:54:06;;;;;;;5.28;4.60;;;19.50;74.40;;;;;;6151523;22;20192;-82
2023/09/19 04:56:32;;;;;;;4.75;4.35;;;19.30;74.40;;;;;;6125760;23;20143;-80
2023/09/19 04:58:59;;;;;;;6.55;5.05;;;19.40;74.60;;;;;;6125638;23;20140;-80
2023/09/19 05:01:25;;;;;;;5.30;4.70;;;19.40;75.00;;;;;;6125619;23;20135;-83
2023/09/19 05:03:52;;;;;;;4.97;4.38;;;19.40;74.80;;;;;;6151471;23;20182;-79
2023/09/19 05:06:20;;;;;;;5.13;4.50;;;19.50;74.70;;;;;;6151609;22;20146;-80
2023/09/19 05:08:50;;;;;;;5.85;4.70;;;19.40;74.60;;;;;;6100666;23;20194;-83
2023/09/19 05:11:17;;;;;;;5.80;5.20;;;19.40;74.70;;;;;;6101915;23;20155;-81
2023/09/19 05:13:43;;;;;;;4.85;4.43;;;19.40;74.70;;;;;;6077766;23;20151;-81
2023/09/19 05:16:10;;;;;;;5.10;4.60;;;19.50;74.70;;;;;;6101269;23;20583;-82
2023/09/19 05:18:36;;;;;;;5.68;4.68;;;19.50;74.80;;;;;;6125456;23;20146;-83
2023/09/19 05:21:02;;;;;;;5.82;4.78;;;19.50;74.70;;;;;;6100844;23;20148;-81
2023/09/19 05:23:28;;;;;;;5.38;4.65;;;19.50;74.70;;;;;;6124985;22;20131;-83
2023/09/19 05:25:54;;;;;;;5.45;4.93;;;19.50;74.90;;;;;;6101246;23;20131;-84
2023/09/19 05:28:20;;;;;;;5.40;4.35;;;19.40;74.90;;;;;;6151342;22;20602;-81
2023/09/19 05:30:47;;;;;;;4.85;4.25;;;19.50;74.60;;;;;;6125247;23;20143;-81
2023/09/19 05:33:13;;;;;;;5.40;4.57;;;19.50;74.60;;;;;;6125371;23;20144;-80
2023/09/19 05:35:41;;;;;;;105.40;9.85;;;19.50;74.60;;;;;;6150553;23;20135;-81
2023/09/19 05:38:13;;;;;;;33.22;6.55;;;19.60;74.80;;;;;;6126021;23;20494;-83
2023/09/19 05:40:42;;;;;;;84.45;9.57;;;19.60;74.90;;;;;;6126852;23;20159;-83
2023/09/19 05:43:09;;;;;;;39.00;7.28;;;19.70;75.20;;;;;;6126161;23;20166;-80
2023/09/19 05:45:36;;;;;;;27.10;6.22;;;19.70;75.30;;;;;;6125806;23;20136;-82
2023/09/19 05:48:11;;;;;;;14.00;5.40;;;19.70;76.30;;;;;;6101503;23;20250;-81
2023/09/19 05:50:38;;;;;;;19.52;5.60;;;19.60;76.50;;;;;;6126018;23;20147;-82
2023/09/19 05:53:04;;;;;;;19.27;5.28;;;19.60;77.00;;;;;;6125495;23;20170;-80
2023/09/19 05:55:31;;;;;;;14.13;5.50;;;19.60;78.30;;;;;;6125608;23;20142;-84
2023/09/19 05:57:57;;;;;;;14.73;6.10;;;19.60;78.30;;;;;;6155370;23;20197;-81
2023/09/19 06:00:23;;;;;;;10.10;5.45;;;19.60;79.10;;;;;;6156807;22;20170;-82
2023/09/19 06:02:53;;;;;;;30.00;7.22;;;19.60;79.40;;;;;;6107083;23;20572;-80
2023/09/19 06:05:20;;;;;;;69.68;10.35;;;19.60;79.90;;;;;;6130801;23;20207;-80
2023/09/19 06:07:46;;;;;;;64.63;8.75;;;19.60;79.80;;;;;;6127488;23;20832;-83
2023/09/19 06:10:12;;;;;;;45.58;7.97;;;19.70;78.50;;;;;;6125295;23;20148;-79
2023/09/19 06:12:38;;;;;;;32.50;6.47;;;19.70;80.10;;;;;;6150932;22;20290;-85
2023/09/19 06:15:08;;;;;;;20.40;6.65;;;19.70;79.60;;;;;;6125168;23;20147;-83
2023/09/19 06:17:37;;;;;;;24.58;6.57;;;19.70;80.10;;;;;;6201191;23;20189;-81
2023/09/19 06:20:12;;;;;;;16.60;5.95;;;19.70;80.90;;;;;;6151296;22;20142;-81
2023/09/19 06:22:39;;;;;;;16.45;6.10;;;19.70;80.30;;;;;;6101783;23;20139;-78
2023/09/19 06:25:05;;;;;;;52.50;8.40;;;19.70;80.80;;;;;;6120073;22;20200;-80
2023/09/19 06:27:31;;;;;;;23.88;7.25;;;19.70;80.50;;;;;;6095903;23;20476;-81
2023/09/19 06:29:56;;;;;;;27.60;7.43;;;19.70;81.20;;;;;;6122259;23;20144;-80
2023/09/19 06:32:29;;;;;;;16.15;6.05;;;19.70;81.70;;;;;;6096302;23;20172;-81
2023/09/19 06:34:55;;;;;;;18.95;6.47;;;19.70;82.20;;;;;;6119998;23;20483;-83
2023/09/19 06:37:22;;;;;;;21.30;7.38;;;19.70;82.30;;;;;;6120147;23;20294;-83
2023/09/19 06:39:49;;;;;;;21.17;7.20;;;19.70;82.90;;;;;;6120260;23;20137;-83
2023/09/19 06:42:17;;;;;;;19.45;7.30;;;19.70;82.90;;;;;;6121759;23;20136;-83
2023/09/19 06:44:43;;;;;;;16.05;7.50;;;19.80;82.90;;;;;;6120237;23;20133;-82
2023/09/19 06:47:09;;;;;;;16.15;7.00;;;19.70;83.60;;;;;;6119670;23;20144;-83
2023/09/19 06:49:36;;;;;;;18.25;7.43;;;19.70;84.10;;;;;;6121491;23;20178;-81
2023/09/19 06:52:02;;;;;;;18.95;6.80;;;19.70;83.40;;;;;;6095498;23;20144;-81
2023/09/19 06:54:34;;;;;;;15.48;7.60;;;19.80;84.10;;;;;;6121489;23;20136;-84
2023/09/19 06:56:59;;;;;;;15.07;7.22;;;19.70;84.00;;;;;;6096622;23;20495;-85
2023/09/19 06:59:25;;;;;;;14.30;7.13;;;19.70;83.90;;;;;;6119856;23;20139;-82
2023/09/19 07:01:51;;;;;;;10.32;6.97;;;19.70;84.70;;;;;;6119986;23;20223;-85
2023/09/19 07:04:19;;;;;;;13.85;7.25;;;19.70;84.70;;;;;;6120091;23;20205;-80
2023/09/19 07:06:49;;;;;;;14.90;7.80;;;19.70;84.70;;;;;;6121716;23;20215;-80
2023/09/19 07:09:16;;;;;;;16.45;7.55;;;19.70;85.20;;;;;;6120574;23;20172;-83
2023/09/19 07:11:48;;;;;;;11.68;6.85;;;19.70;86.00;;;;;;6118641;23;20777;-86
2023/09/19 07:14:13;;;;;;;18.15;7.80;;;19.70;85.70;;;;;;6219500;23;20182;-84
2023/09/19 07:16:42;;;;;;;18.15;8.07;;;19.70;85.70;;;;;;6120636;23;20136;-83
2023/09/19 07:19:08;;;;;;;8.80;7.50;;;19.70;85.90;;;;;;6120257;23;20136;-82
2023/09/19 07:21:35;;;;;;;16.23;8.00;;;19.70;86.00;;;;;;6119400;23;20156;-83
2023/09/19 07:24:02;;;;;;;14.23;7.95;;;19.70;86.50;;;;;;6119504;23;20234;-83
2023/09/19 07:26:28;;;;;;;14.90;8.05;;;19.80;86.80;;;;;;6095981;23;20170;-84
2023/09/19 07:28:54;;;;;;;11.45;8.05;;;19.70;87.20;;;;;;6119456;23;20195;-85
2023/09/19 07:31:20;;;;;;;14.38;8.40;;;19.80;87.40;;;;;;6119707;23;20139;-81
2023/09/19 07:33:46;;;;;;;15.32;8.00;;;19.80;87.60;;;;;;6119710;23;20219;-83
2023/09/19 07:36:13;;;;;;;12.95;8.57;;;19.80;87.30;;;;;;6120718;23;20190;-85
2023/09/19 07:38:40;;;;;;;16.73;8.48;;;19.80;87.40;;;;;;6119559;23;20136;-86
2023/09/19 07:41:07;;;;;;;13.68;8.75;;;19.80;88.30;;;;;;6119690;23;20133;-82
2023/09/19 07:43:33;;;;;;;14.02;8.50;;;19.80;87.80;;;;;;6119530;23;20137;-82
2023/09/19 07:46:03;;;;;;;13.82;8.55;;;19.80;88.30;;;;;;6095968;23;20610;-81
2023/09/19 07:48:29;;;;;;;11.93;8.90;;;19.80;88.40;;;;;;6095213;23;20168;-82
2023/09/19 07:50:55;;;;;;;12.50;8.50;;;19.80;88.90;;;;;;6120914;23;20216;-80
2023/09/19 07:53:22;;;;;;;14.07;9.27;;;19.80;88.90;;;;;;6119462;23;20155;-80
2023/09/19 07:55:48;;;;;;;15.70;9.15;;;19.80;88.90;;;;;;6119188;23;20137;-84
2023/09/19 07:58:15;;;;;;;13.32;8.85;;;19.80;89.30;;;;;;6119510;23;20155;-84
2023/09/19 08:00:41;;;;;;;17.15;9.48;;;19.80;89.60;;;;;;6122109;23;20136;-84
2023/09/19 08:03:08;;;;;;;16.73;8.85;;;19.80;90.00;;;;;;6072676;23;20175;-85
2023/09/19 08:05:34;;;;;;;14.40;9.43;;;19.80;90.10;;;;;;6096979;23;20210;-83
2023/09/19 08:08:01;;;;;;;16.40;9.60;;;19.80;90.20;;;;;;6096546;23;20616;-84
2023/09/19 08:10:27;;;;;;;16.67;9.52;;;19.80;90.40;;;;;;6121185;23;20133;-81
2023/09/19 08:12:57;;;;;;;15.10;9.85;;;19.80;90.30;;;;;;6123012;23;20201;-83
2023/09/19 08:15:23;;;;;;;11.65;8.70;;;19.80;90.50;;;;;;6120906;23;20129;-83
2023/09/19 08:17:50;;;;;;;14.00;9.20;;;19.80;90.80;;;;;;6120768;23;20151;-83
2023/09/19 08:20:17;;;;;;;14.73;9.82;;;19.80;90.60;;;;;;6121065;23;20595;-82
2023/09/19 08:22:45;;;;;;;14.18;9.77;;;19.80;90.60;;;;;;6097681;23;20497;-84
2023/09/19 08:25:11;;;;;;;13.82;10.13;;;19.80;90.70;;;;;;6097619;23;20192;-83
2023/09/19 08:27:37;;;;;;;15.45;9.55;;;19.80;90.70;;;;;;6096417;23;20169;-79
2023/09/19 08:30:03;;;;;;;15.65;9.85;;;19.80;90.80;;;;;;6122204;23;20159;-85
2023/09/19 08:32:29;;;;;;;15.05;10.13;;;19.80;90.90;;;;;;6120944;23;20156;-82
2023/09/19 08:34:55;;;;;;;14.85;9.93;;;19.80;91.00;;;;;;6096179;23;20170;-84
2023/09/19 08:37:21;;;;;;;13.93;9.75;;;19.80;91.00;;;;;;6120455;23;20239;-79
2023/09/19 08:39:46;;;;;;;15.32;10.80;;;19.80;91.10;;;;;;6121167;23;20133;-82
2023/09/19 08:42:13;;;;;;;17.48;9.95;;;19.90;91.30;;;;;;6120754;23;20155;-80
2023/09/19 08:44:43;;;;;;;15.68;9.70;;;19.90;91.20;;;;;;6122555;23;20128;-80
2023/09/19 08:47:13;;;;;;;16.42;10.27;;;19.90;91.10;;;;;;6120729;23;20178;-85
2023/09/19 08:49:53;;;;;;;15.55;9.68;;;19.90;91.20;;;;;;6097412;23;20255;-81
2023/09/19 08:52:23;;;;;;;12.68;9.88;;;19.90;91.40;;;;;;6120493;23;20179;-85
2023/09/19 08:54:49;;;;;;;13.07;10.20;;;19.90;91.40;;;;;;6120965;23;20156;-85
2023/09/19 08:57:21;;;;;;;14.13;10.27;;;19.90;91.50;;;;;;6121202;23;20156;-83
2023/09/19 08:59:47;;;;;;;12.82;9.88;;;19.90;91.60;;;;;;6097241;23;20156;-81
2023/09/19 09:02:14;;;;;;;12.25;9.93;;;19.90;91.70;;;;;;6094870;23;20132;-86
2023/09/19 09:04:41;;;;;;;14.68;10.35;;;19.90;91.80;;;;;;6120169;23;20133;-83
2023/09/19 09:07:14;;;;;;;12.95;10.68;;;19.90;91.80;;;;;;6094960;23;20152;-81
2023/09/19 09:09:42;;;;;;;12.52;10.18;;;19.90;91.90;;;;;;6118907;23;20168;-81
2023/09/19 09:12:13;;;;;;;13.02;9.75;;;19.90;91.80;;;;;;6094503;23;20137;-84
2023/09/19 09:14:41;;;;;;;15.38;10.80;;;19.90;91.90;;;;;;6095168;23;20258;-83
2023/09/19 09:17:07;;;;;;;14.43;10.85;;;20.00;91.90;;;;;;6119511;23;20278;-83
2023/09/19 09:19:33;;;;;;;13.50;10.05;;;19.90;91.90;;;;;;6096192;23;20188;-82
2023/09/19 09:22:10;;;;;;;10.68;9.57;;;20.00;92.00;;;;;;6120542;23;20556;-83
2023/09/19 09:24:37;;;;;;;16.23;10.55;;;20.00;92.00;;;;;;6120135;23;20195;-81
2023/09/19 09:27:08;;;;;;;11.27;10.02;;;20.00;91.90;;;;;;6121828;23;20527;-84
2023/09/19 09:29:43;;;;;;;15.38;10.45;;;20.00;92.00;;;;;;6120260;23;20230;-81
2023/09/19 09:32:26;;;;;;;13.05;9.65;;;19.90;91.90;;;;;;6072296;23;20151;-84
2023/09/19 09:34:53;;;;;;;13.57;10.32;;;20.00;92.10;;;;;;6120541;23;20222;-83
2023/09/19 09:37:20;;;;;;;15.05;10.70;;;20.00;92.00;;;;;;6096276;23;20251;-83
2023/09/19 09:42:39;;;;;;;13.45;10.40;;;20.00;92.10;;;;;;6121768;23;20195;-82
2023/09/19 09:45:48;;;;;;;12.25;10.18;;;20.10;92.20;;;;;;6072340;23;20144;-83
2023/09/19 09:48:14;;;;;;;13.05;10.82;;;20.10;92.30;;;;;;6121110;23;20187;-83
2023/09/19 09:50:56;;;;;;;14.45;10.43;;;20.10;92.30;;;;;;6119922;23;20173;-82
2023/09/19 09:53:26;;;;;;;12.73;10.60;;;20.10;92.30;;;;;;6121796;23;20129;-81
2023/09/19 09:56:08;;;;;;;22.38;12.43;;;20.10;92.30;;;;;;6121434;23;20208;-83
2023/09/19 09:58:37;;;;;;;11.07;8.93;;;20.10;92.10;;;;;;6096050;23;20152;-83
2023/09/19 10:01:08;;;;;;;14.10;11.07;;;20.00;92.20;;;;;;6095969;23;20129;-83
2023/09/19 10:03:39;;;;;;;15.60;10.95;;;20.10;92.10;;;;;;6095850;23;20152;-82
2023/09/19 10:06:24;;;;;;;13.27;10.07;;;20.10;92.10;;;;;;6119826;23;20448;-82
2023/09/19 10:09:04;;;;;;;12.80;10.88;;;20.10;92.10;;;;;;6120414;23;20588;-83
2023/09/19 10:11:30;;;;;;;15.85;10.88;;;20.10;92.20;;;;;;6096786;23;20151;-85
2023/09/19 10:13:57;;;;;;;14.18;11.05;;;20.10;92.10;;;;;;6095405;23;20235;-82
2023/09/19 10:16:22;;;;;;;12.93;9.90;;;20.10;92.20;;;;;;6121344;23;20215;-84
2023/09/19 10:18:50;;;;;;;12.70;9.93;;;20.10;92.10;;;;;;6120886;23;20163;-83
2023/09/19 10:21:15;;;;;;;13.43;10.18;;;20.20;92.20;;;;;;6117583;23;20202;-84
2023/09/19 10:23:42;;;;;;;14.35;10.73;;;20.20;92.30;;;;;;6125729;22;20841;-81
2023/09/19 10:26:09;;;;;;;12.85;10.27;;;20.20;92.20;;;;;;6100842;23;20558;-80
2023/09/19 10:28:35;;;;;;;13.95;9.75;;;20.20;92.30;;;;;;6124864;23;20167;-81
2023/09/19 10:31:00;;;;;;;12.18;10.70;;;20.20;92.30;;;;;;6100737;23;20634;-82
2023/09/19 10:33:26;;;;;;;14.43;11.50;;;20.20;92.30;;;;;;6100555;23;20155;-81
2023/09/19 10:35:52;;;;;;;13.57;12.10;;;20.20;92.20;;;;;;6100284;23;20539;-84
2023/09/19 10:38:21;;;;;;;11.45;10.02;;;20.10;92.30;;;;;;6124826;23;20442;-84
2023/09/19 10:40:50;;;;;;;14.75;10.23;;;20.20;92.50;;;;;;6101433;23;20163;-82
2023/09/19 10:43:18;;;;;;;15.05;12.20;;;20.10;92.30;;;;;;6100834;23;20144;-81
2023/09/19 10:45:44;;;;;;;12.70;10.50;;;20.20;92.20;;;;;;6125506;23;20571;-84
2023/09/19 10:48:12;;;;;;;14.07;11.40;;;20.20;92.30;;;;;;6100514;23;20174;-82
2023/09/19 10:50:48;;;;;;;14.63;11.15;;;20.20;92.30;;;;;;6125140;23;20137;-83
2023/09/19 10:53:15;;;;;;;11.50;10.30;;;20.20;92.20;;;;;;6101275;23;20528;-82
2023/09/19 10:55:40;;;;;;;12.02;10.43;;;20.20;92.30;;;;;;6124860;23;20135;-84
2023/09/19 10:58:14;;;;;;;13.52;10.27;;;20.20;92.30;;;;;;6124432;23;20144;-83
2023/09/19 11:00:53;;;;;;;11.88;10.63;;;20.20;92.30;;;;;;6123947;23;20463;-85
2023/09/19 11:03:21;;;;;;;14.20;10.55;;;20.30;92.20;;;;;;6122884;23;20132;-85
2023/09/19 11:06:04;;;;;;;16.02;11.15;;;20.30;92.10;;;;;;6150446;23;20237;-84
2023/09/19 11:08:50;;;;;;;37.92;13.63;;;20.30;92.10;;;;;;6099010;23;20518;-82
2023/09/19 11:11:42;;;;;;;16.88;12.07;;;20.30;92.20;;;;;;6099814;23;20144;-81
2023/09/19 11:14:31;;;;;;;15.55;11.18;;;20.30;92.10;;;;;;6150483;23;20166;-84
2023/09/19 11:17:37;;;;;;;13.52;10.07;;;20.30;92.10;;;;;;6150717;23;20135;-82
2023/09/19 11:20:24;;;;;;;12.98;10.38;;;20.30;92.10;;;;;;6084854;23;20143;-84
2023/09/19 11:23:17;;;;;;;11.13;9.57;;;20.30;92.00;;;;;;6102071;23;20127;-80
2023/09/19 11:25:52;;;;;;;12.88;9.60;;;20.20;91.90;;;;;;6130401;23;20159;-85
2023/09/19 11:28:35;;;;;;;11.38;10.18;;;20.30;92.00;;;;;;6124235;23;20183;-84
2023/09/19 11:31:32;;;;;;;9.60;8.57;;;20.30;91.90;;;;;;6124698;23;20147;-83
2023/09/19 11:34:32;;;;;;;12.07;9.35;;;20.30;91.70;;;;;;6150619;23;20607;-83
2023/09/19 11:37:00;;;;;;;9.48;8.48;;;20.30;91.70;;;;;;6151176;23;20630;-83
2023/09/19 11:39:27;;;;;;;10.88;9.45;;;20.30;91.50;;;;;;6151603;22;20136;-80
2023/09/19 11:41:56;;;;;;;10.23;9.13;;;20.30;91.70;;;;;;6101236;23;20150;-85
2023/09/19 11:44:34;;;;;;;12.75;9.15;;;20.30;91.70;;;;;;6102749;23;20178;-80
2023/09/19 11:47:00;;;;;;;11.85;9.40;;;20.30;91.70;;;;;;6151446;22;20128;-83
2023/09/19 11:49:31;;;;;;;10.40;9.30;;;20.30;91.60;;;;;;6100897;23;20189;-80
2023/09/19 11:51:59;;;;;;;10.27;8.75;;;20.30;91.60;;;;;;6074837;23;20230;-84
2023/09/19 11:54:28;;;;;;;9.98;8.90;;;20.30;91.40;;;;;;6124007;23;20584;-84
2023/09/19 11:56:54;;;;;;;10.30;8.80;;;20.40;91.40;;;;;;6100371;23;20580;-84
2023/09/19 11:59:22;;;;;;;9.43;8.30;;;20.30;91.10;;;;;;6100436;23;20140;-82
2023/09/19 12:01:59;;;;;;;9.52;8.40;;;20.30;90.90;;;;;;6125271;23;20132;-85
2023/09/19 12:04:43;;;;;;;10.70;8.60;;;20.20;90.70;;;;;;6126508;23;20296;-82
2023/09/19 12:07:15;;;;;;;9.63;8.63;;;20.30;90.50;;;;;;6125946;23;20150;-82
2023/09/19 12:09:44;;;;;;;8.95;7.90;;;20.30;90.30;;;;;;6077672;23;20183;-82
2023/09/19 12:12:12;;;;;;;8.63;7.40;;;20.30;90.10;;;;;;6151505;22;20139;-81
2023/09/19 12:14:39;;;;;;;7.78;6.97;;;20.30;89.60;;;;;;6101480;23;20155;-81
2023/09/19 12:17:05;;;;;;;7.70;6.93;;;20.30;89.70;;;;;;6151732;23;20131;-83
2023/09/19 12:19:31;;;;;;;7.75;6.93;;;20.40;88.20;;;;;;6126865;23;20423;-79
2023/09/19 12:21:59;;;;;;;7.80;6.90;;;20.30;87.60;;;;;;6125965;23;20144;-81
2023/09/19 12:24:26;;;;;;;7.65;6.45;;;20.40;87.10;;;;;;6120635;23;20207;-83
2023/09/19 12:26:52;;;;;;;7.47;6.47;;;20.40;86.50;;;;;;6073436;23;20164;-84
2023/09/19 12:29:20;;;;;;;7.50;6.70;;;20.40;86.20;;;;;;6124031;23;20246;-84
2023/09/19 12:31:50;;;;;;;7.15;6.38;;;20.40;85.90;;;;;;6125957;23;20183;-81
2023/09/19 12:34:21;;;;;;;6.85;6.15;;;20.40;85.40;;;;;;6125664;23;20549;-80
2023/09/19 12:36:47;;;;;;;7.63;6.00;;;20.40;85.10;;;;;;6125182;23;20235;-80
2023/09/19 12:39:24;;;;;;;6.55;5.85;;;20.40;84.50;;;;;;6125019;23;20183;-81
2023/09/19 12:41:50;;;;;;;6.90;5.85;;;20.40;83.90;;;;;;6096929;23;20571;-82
2023/09/19 12:44:18;;;;;;;6.80;6.10;;;20.40;83.40;;;;;;6120637;23;20145;-82
2023/09/19 12:46:45;;;;;;;7.00;5.80;;;20.40;83.00;;;;;;6120573;23;20143;-83
2023/09/19 12:49:18;;;;;;;7.70;5.82;;;20.40;82.70;;;;;;6072444;23;20229;-81
2023/09/19 12:51:45;;;;;;;6.57;5.88;;;20.40;82.40;;;;;;6072177;23;20558;-81
2023/09/19 12:54:11;;;;;;;6.82;6.13;;;20.40;82.60;;;;;;6120310;23;20137;-82